createdAt,value
2022-08-07T00:00:40.012Z,39.60
2022-08-07T00:03:09.020Z,39.80
2022-08-07T00:05:37.155Z,39.59
2022-08-07T00:08:07.794Z,39.83
2022-08-07T00:10:48.360Z,39.85
2022-08-07T00:13:26.825Z,39.48
2022-08-07T00:15:55.532Z,40.07
2022-08-07T00:18:25.690Z,39.91
2022-08-07T00:20:56.643Z,40.04
2022-08-07T00:23:28.333Z,40.57
2022-08-07T00:26:03.050Z,40.47
2022-08-07T00:28:45.721Z,40.08
2022-08-07T00:31:16.582Z,40.14
2022-08-07T00:33:47.369Z,40.15
2022-08-07T00:36:16.921Z,40.08
2022-08-07T00:38:45.078Z,40.91
2022-08-07T00:41:14.488Z,40.96
2022-08-07T00:43:59.373Z,40.53
2022-08-07T00:46:30.176Z,40.57
2022-08-07T00:49:02.147Z,41.20
2022-08-07T00:51:57.097Z,40.70
2022-08-07T00:54:20.000Z,40.78
2022-08-07T00:56:50.261Z,41.71
2022-08-07T00:59:20.251Z,41.26
2022-08-07T01:02:06.351Z,41.22
2022-08-07T01:04:43.243Z,41.49
2022-08-07T01:07:13.425Z,42.34
2022-08-07T01:10:04.122Z,41.76
2022-08-07T01:12:31.986Z,41.74
2022-08-07T01:15:03.967Z,41.61
2022-08-07T01:17:33.580Z,41.91
2022-08-07T01:20:08.083Z,42.26
2022-08-07T01:22:46.904Z,42.10
2022-08-07T01:25:54.893Z,42.15
2022-08-07T01:28:15.921Z,41.84
2022-08-07T01:30:46.335Z,42.18
2022-08-07T01:33:16.864Z,42.31
2022-08-07T01:35:54.230Z,42.48
2022-08-07T01:38:30.305Z,42.69
2022-08-07T01:41:07.065Z,42.96
2022-08-07T01:43:39.433Z,42.30
2022-08-07T01:46:12.133Z,42.25
2022-08-07T01:48:46.791Z,42.12
2022-08-07T01:52:01.103Z,42.56
2022-08-07T01:54:33.162Z,43.11
2022-08-07T01:57:08.487Z,42.40
2022-08-07T01:59:44.215Z,43.49
2022-08-07T02:03:11.466Z,43.48
2022-08-07T02:05:43.088Z,42.97
2022-08-07T02:08:13.852Z,43.35
2022-08-07T02:10:48.675Z,43.35
2022-08-07T02:13:47.006Z,43.67
2022-08-07T02:16:19.755Z,43.13
2022-08-07T02:18:51.362Z,43.55
2022-08-07T02:21:20.369Z,42.92
2022-08-07T02:23:49.456Z,43.42
2022-08-07T02:26:32.743Z,43.81
2022-08-07T02:29:04.222Z,43.06
2022-08-07T02:31:33.075Z,43.35
2022-08-07T02:34:11.233Z,43.72
2022-08-07T02:36:47.629Z,43.77
2022-08-07T02:39:42.856Z,43.51
2022-08-07T02:42:16.303Z,43.54
2022-08-07T02:44:51.905Z,44.18
2022-08-07T02:47:26.193Z,43.25
2022-08-07T02:50:02.869Z,43.77
2022-08-07T02:52:38.698Z,44.40
2022-08-07T02:55:27.317Z,43.90
2022-08-07T02:58:03.023Z,44.69
2022-08-07T03:00:35.336Z,44.68
2022-08-07T03:03:07.133Z,44.30
2022-08-07T03:05:45.564Z,43.87
2022-08-07T03:08:16.703Z,45.20
2022-08-07T03:10:47.521Z,44.84
2022-08-07T03:13:22.766Z,44.84
2022-08-07T03:15:58.415Z,44.55
2022-08-07T03:18:34.519Z,44.70
2022-08-07T03:21:04.629Z,44.65
2022-08-07T03:24:19.036Z,44.64
2022-08-07T03:26:31.997Z,45.51
2022-08-07T03:29:10.550Z,45.60
2022-08-07T03:31:46.241Z,45.51
2022-08-07T03:34:22.495Z,45.82
2022-08-07T03:36:57.381Z,45.22
2022-08-07T03:39:59.547Z,46.04
2022-08-07T03:42:17.034Z,45.80
2022-08-07T03:44:53.589Z,45.62
2022-08-07T03:47:29.431Z,45.73
2022-08-07T03:50:13.945Z,45.48
2022-08-07T03:52:43.580Z,45.49
2022-08-07T03:55:12.909Z,45.72
2022-08-07T03:58:33.367Z,46.27
2022-08-07T04:00:46.641Z,46.00
2022-08-07T04:03:23.626Z,45.70
2022-08-07T04:05:53.565Z,45.83
2022-08-07T04:08:38.084Z,47.20
2022-08-07T04:12:15.636Z,45.91
2022-08-07T04:14:09.225Z,46.27
2022-08-07T04:16:43.109Z,46.23
2022-08-07T04:19:50.904Z,46.07
2022-08-07T04:22:17.722Z,45.81
2022-08-07T04:24:47.023Z,45.88
2022-08-07T04:27:35.950Z,46.11
2022-08-07T04:30:04.627Z,45.90
2022-08-07T04:32:48.057Z,46.95
2022-08-07T04:35:26.438Z,45.41
2022-08-07T04:38:03.182Z,46.08
2022-08-07T04:40:35.319Z,46.34
2022-08-07T04:43:03.815Z,45.39
2022-08-07T04:46:00.330Z,46.63
2022-08-07T04:48:44.775Z,46.77
2022-08-07T04:51:27.317Z,46.57
2022-08-07T04:54:06.174Z,45.86
2022-08-07T04:58:12.051Z,46.55
2022-08-07T05:00:10.858Z,45.63
2022-08-07T05:02:29.173Z,45.63
2022-08-07T05:05:52.050Z,45.85
2022-08-07T05:07:59.804Z,45.86
2022-08-07T05:10:34.398Z,45.79
2022-08-07T05:14:56.442Z,46.22
2022-08-07T05:16:04.593Z,45.16
2022-08-07T05:18:36.583Z,45.67
2022-08-07T05:21:10.922Z,45.85
2022-08-07T05:23:43.149Z,47.38
2022-08-07T05:26:24.044Z,47.09
2022-08-07T05:29:00.026Z,46.50
2022-08-07T05:31:38.451Z,46.59
2022-08-07T05:34:12.858Z,45.85
2022-08-07T05:36:49.041Z,46.73
2022-08-07T05:40:16.465Z,45.18
2022-08-07T05:42:33.808Z,44.96
2022-08-07T05:45:26.356Z,45.30
2022-08-07T05:48:03.319Z,45.17
2022-08-07T05:50:42.842Z,44.75
2022-08-07T05:54:13.063Z,44.88
2022-08-07T05:56:06.129Z,44.27
2022-08-07T05:58:40.052Z,44.11
2022-08-07T06:01:12.853Z,44.25
2022-08-07T06:03:56.422Z,44.17
2022-08-07T06:06:29.806Z,43.58
2022-08-07T06:09:04.725Z,43.83
2022-08-07T06:11:35.829Z,43.61
2022-08-07T06:14:12.620Z,44.02
2022-08-07T06:16:56.059Z,43.54
2022-08-07T06:19:51.844Z,43.30
2022-08-07T06:22:27.090Z,42.69
2022-08-07T06:25:12.434Z,42.59
2022-08-07T06:28:00.609Z,42.11
2022-08-07T06:30:35.509Z,41.49
2022-08-07T06:33:16.144Z,40.92
2022-08-07T06:36:06.889Z,39.30
2022-08-07T06:38:35.604Z,39.17
2022-08-07T06:41:13.131Z,37.61
2022-08-07T06:44:01.406Z,36.99
2022-08-07T06:46:35.655Z,35.47
2022-08-07T06:49:05.700Z,34.88
2022-08-07T06:51:49.696Z,34.00
2022-08-07T06:55:29.001Z,33.94
2022-08-07T06:57:14.910Z,32.69
2022-08-07T07:00:13.921Z,32.63
2022-08-07T07:02:53.473Z,31.80
2022-08-07T07:06:03.074Z,32.83
2022-08-07T07:08:18.568Z,33.34
2022-08-07T07:10:56.540Z,33.48
2022-08-07T07:13:56.291Z,33.20
2022-08-07T07:16:30.303Z,32.78
2022-08-07T07:19:33.859Z,32.86
2022-08-07T07:22:04.595Z,32.21
2022-08-07T07:24:58.536Z,33.11
2022-08-07T07:27:55.801Z,31.53
2022-08-07T07:30:38.489Z,33.06
2022-08-07T07:33:11.549Z,32.60
2022-08-07T07:35:43.729Z,33.21
2022-08-07T07:38:25.570Z,31.98
2022-08-07T07:41:01.856Z,31.27
2022-08-07T07:43:47.716Z,30.52
2022-08-07T07:46:37.011Z,29.26
2022-08-07T07:50:34.518Z,29.19
2022-08-07T07:52:06.121Z,27.97
2022-08-07T07:54:36.931Z,27.61
2022-08-07T07:57:07.105Z,27.25
2022-08-07T07:59:52.080Z,24.78
2022-08-07T08:02:35.703Z,23.64
2022-08-07T08:05:14.294Z,24.68
2022-08-07T08:07:59.717Z,24.49
2022-08-07T08:10:37.754Z,23.65
2022-08-07T08:13:10.556Z,22.97
2022-08-07T08:15:58.885Z,23.63
2022-08-07T08:18:30.886Z,22.81
2022-08-07T08:21:02.800Z,21.66
2022-08-07T08:23:49.808Z,21.75
2022-08-07T08:26:33.743Z,22.16
2022-08-07T08:29:05.464Z,21.86
2022-08-07T08:31:58.735Z,21.20
2022-08-07T08:34:49.961Z,18.94
2022-08-07T08:38:00.651Z,20.62
2022-08-07T08:40:16.298Z,20.92
2022-08-07T08:43:07.517Z,19.70
2022-08-07T08:45:59.129Z,19.43
2022-08-07T08:48:35.744Z,19.08
2022-08-07T08:51:14.469Z,19.12
2022-08-07T08:54:02.106Z,17.61
2022-08-07T08:56:36.431Z,18.65
2022-08-07T08:59:16.278Z,18.25
2022-08-07T09:01:53.437Z,18.40
2022-08-07T09:04:38.947Z,18.46
2022-08-07T09:07:15.535Z,14.57
2022-08-07T09:10:03.382Z,16.68
2022-08-07T09:12:59.785Z,16.28
2022-08-07T09:16:24.532Z,16.07
2022-08-07T09:19:00.772Z,14.79
2022-08-07T09:22:09.965Z,17.01
2022-08-07T09:25:01.776Z,15.16
2022-08-07T09:28:00.436Z,15.98
2022-08-07T09:30:44.197Z,15.81
2022-08-07T09:33:41.282Z,16.13
2022-08-07T09:36:26.916Z,15.61
2022-08-07T09:39:11.592Z,15.31
2022-08-07T09:42:07.644Z,15.46
2022-08-07T09:46:28.629Z,16.32
2022-08-07T09:48:02.898Z,15.62
2022-08-07T09:50:45.799Z,14.09
2022-08-07T09:53:20.420Z,16.09
2022-08-07T09:56:06.588Z,15.49
2022-08-07T09:59:15.023Z,15.63
2022-08-07T10:02:07.044Z,15.14
2022-08-07T10:05:13.746Z,14.56
2022-08-07T10:07:58.361Z,15.84
2022-08-07T10:11:17.080Z,16.08
2022-08-07T10:14:00.392Z,15.60
2022-08-07T10:16:41.630Z,15.38
2022-08-07T10:19:41.870Z,15.79
2022-08-07T10:22:33.849Z,16.34
2022-08-07T10:25:14.787Z,15.75
2022-08-07T10:28:04.504Z,16.71
2022-08-07T10:30:44.603Z,16.22
2022-08-07T10:34:14.483Z,16.44
2022-08-07T10:36:37.578Z,16.75
2022-08-07T10:39:17.959Z,19.74
2022-08-07T10:42:00.397Z,16.38
2022-08-07T10:44:39.636Z,17.42
2022-08-07T10:47:26.917Z,17.56
2022-08-07T10:50:18.860Z,17.40
2022-08-07T10:52:56.559Z,18.00
2022-08-07T10:55:37.887Z,18.93
2022-08-07T10:58:31.913Z,17.88
2022-08-07T11:01:18.618Z,17.62
2022-08-07T11:04:16.681Z,18.35
2022-08-07T11:06:55.221Z,18.06
2022-08-07T11:10:09.619Z,17.97
2022-08-07T11:12:31.368Z,18.56
2022-08-07T11:15:14.464Z,17.74
2022-08-07T11:17:48.279Z,16.27
2022-08-07T11:20:22.536Z,18.03
2022-08-07T11:23:01.432Z,18.45
2022-08-07T11:25:35.988Z,18.12
2022-08-07T11:28:16.716Z,17.55
2022-08-07T11:30:52.751Z,16.95
2022-08-07T11:33:55.397Z,18.43
2022-08-07T11:36:30.583Z,17.25
2022-08-07T11:39:07.315Z,17.10
2022-08-07T11:42:01.338Z,17.17
2022-08-07T11:44:52.783Z,17.35
2022-08-07T11:47:59.064Z,16.95
2022-08-07T11:50:44.573Z,17.19
2022-08-07T11:53:56.989Z,16.34
2022-08-07T11:56:46.480Z,17.07
2022-08-07T12:00:11.218Z,16.55
2022-08-07T12:02:53.681Z,16.49
2022-08-07T12:05:41.599Z,16.04
2022-08-07T12:08:25.756Z,17.23
2022-08-07T12:24:05.893Z,14.12
2022-08-07T12:26:41.884Z,14.44
2022-08-07T12:29:38.491Z,14.94
2022-08-07T12:32:41.224Z,15.13
2022-08-07T12:35:36.966Z,16.81
2022-08-07T12:38:17.825Z,15.71
2022-08-07T12:45:57.124Z,16.19
2022-08-07T12:53:23.065Z,17.22
2022-08-07T12:56:35.794Z,18.51
2022-08-07T12:59:08.351Z,19.32
2022-08-07T13:01:46.398Z,18.75
2022-08-07T13:04:34.931Z,18.95
2022-08-07T13:08:14.298Z,19.25
2022-08-07T13:10:37.753Z,19.43
2022-08-07T13:13:48.443Z,19.83
2022-08-07T13:16:26.784Z,19.80
2022-08-07T13:19:03.848Z,20.09
2022-08-07T13:21:37.797Z,20.10
2022-08-07T13:24:29.316Z,20.35
2022-08-07T13:27:05.674Z,19.98
2022-08-07T13:29:47.797Z,20.42
2022-08-07T13:32:32.480Z,20.57
2022-08-07T13:35:12.397Z,20.53
2022-08-07T13:37:55.416Z,20.60
2022-08-07T13:40:35.804Z,20.29
2022-08-07T13:43:15.092Z,20.99
2022-08-07T13:46:10.432Z,20.99
2022-08-07T13:48:38.596Z,20.98
2022-08-07T13:51:27.461Z,21.28
2022-08-07T13:54:03.261Z,21.42
2022-08-07T13:56:36.135Z,21.50
2022-08-07T13:59:13.625Z,21.96
2022-08-07T14:02:04.580Z,21.56
2022-08-07T14:04:38.061Z,21.95
2022-08-07T14:07:16.860Z,22.28
2022-08-07T14:10:01.229Z,21.96
2022-08-07T14:12:41.544Z,22.17
2022-08-07T14:15:23.679Z,21.93
2022-08-07T14:18:24.113Z,21.85
2022-08-07T14:20:54.665Z,22.03
2022-08-07T14:23:31.426Z,22.40
2022-08-07T14:26:28.456Z,22.00
2022-08-07T14:29:10.640Z,21.87
2022-08-07T14:31:57.689Z,22.71
2022-08-07T14:34:30.762Z,22.43
2022-08-07T14:37:03.113Z,22.45
2022-08-07T14:40:19.579Z,22.41
2022-08-07T14:42:26.071Z,22.64
2022-08-07T14:44:59.947Z,22.59
2022-08-07T14:47:35.818Z,22.70
2022-08-07T14:53:07.921Z,22.94
2022-08-07T14:55:55.688Z,22.42
2022-08-07T14:58:55.191Z,22.46
2022-08-07T15:02:31.656Z,22.48
2022-08-07T15:05:20.046Z,22.31
2022-08-07T15:08:23.730Z,22.36
2022-08-07T15:11:53.211Z,22.34
2022-08-07T15:14:31.967Z,22.30
2022-08-07T15:17:25.907Z,22.37
2022-08-07T15:20:32.509Z,22.36
2022-08-07T15:26:43.205Z,22.21
2022-08-07T15:30:08.694Z,22.53
2022-08-07T15:32:13.652Z,22.35
2022-08-07T15:34:57.128Z,22.48
2022-08-07T15:43:53.687Z,22.57
2022-08-07T15:50:37.979Z,22.98
2022-08-07T15:53:53.161Z,22.63
2022-08-07T15:56:35.585Z,22.57
2022-08-07T15:59:16.633Z,22.72
2022-08-07T16:02:02.015Z,22.86
2022-08-07T16:04:34.962Z,22.75
2022-08-07T16:08:33.217Z,22.80
2022-08-07T16:10:18.011Z,22.96
2022-08-07T16:13:05.658Z,22.67
2022-08-07T16:15:58.942Z,22.79
2022-08-07T16:18:50.999Z,22.80
2022-08-07T16:22:01.150Z,23.08
2022-08-07T16:24:33.510Z,22.80
2022-08-07T16:27:18.754Z,23.31
2022-08-07T16:30:31.523Z,23.27
2022-08-07T16:34:02.403Z,23.01
2022-08-07T16:36:20.333Z,22.79
2022-08-07T16:39:14.821Z,22.84
2022-08-07T16:42:27.233Z,23.28
2022-08-07T16:46:33.431Z,22.95
2022-08-07T16:50:28.246Z,23.68
2022-08-07T16:52:11.937Z,23.07
2022-08-07T16:55:18.246Z,23.22
2022-08-07T16:58:04.310Z,23.62
2022-08-07T17:00:43.734Z,23.09
2022-08-07T17:03:58.014Z,23.28
2022-08-07T17:06:41.047Z,23.52
2022-08-07T17:10:06.825Z,23.82
2022-08-07T17:12:36.680Z,23.65
2022-08-07T17:15:08.734Z,23.64
2022-08-07T17:17:50.167Z,23.46
2022-08-07T17:20:30.860Z,23.65
2022-08-07T17:23:08.846Z,23.64
2022-08-07T17:25:54.533Z,23.35
2022-08-07T17:28:33.302Z,23.78
2022-08-07T17:31:16.868Z,23.35
2022-08-07T17:34:15.256Z,23.49
2022-08-07T17:36:57.709Z,23.60
2022-08-07T17:39:58.778Z,23.64
2022-08-07T17:42:59.916Z,23.70
2022-08-07T17:45:32.156Z,24.00
2022-08-07T17:48:11.179Z,23.96
2022-08-07T17:50:58.441Z,23.73
2022-08-07T17:54:02.212Z,23.98
2022-08-07T17:56:39.179Z,24.19
2022-08-07T17:59:24.982Z,24.22
2022-08-07T18:01:58.744Z,24.28
2022-08-07T18:04:34.414Z,24.41
2022-08-07T18:07:21.005Z,24.50
2022-08-07T18:10:06.725Z,24.49
2022-08-07T18:12:52.584Z,24.24
2022-08-07T18:15:32.887Z,24.64
2022-08-07T18:18:39.745Z,24.51
2022-08-07T18:21:27.470Z,24.81
2022-08-07T18:24:07.563Z,24.88
2022-08-07T18:26:57.926Z,24.78
2022-08-07T18:30:06.990Z,25.20
2022-08-07T18:32:54.996Z,25.35
2022-08-07T18:35:52.049Z,25.32
2022-08-07T18:38:56.754Z,25.31
2022-08-07T18:41:45.097Z,25.50
2022-08-07T18:45:09.108Z,25.86
2022-08-07T18:47:38.001Z,25.42
2022-08-07T18:50:45.589Z,25.95
2022-08-07T18:53:22.584Z,25.88
2022-08-07T18:56:15.173Z,26.28
2022-08-07T18:58:55.514Z,26.13
2022-08-07T19:02:18.230Z,26.26
2022-08-07T19:04:38.818Z,26.51
2022-08-07T19:07:35.182Z,26.70
2022-08-07T19:10:14.793Z,26.62
2022-08-07T19:12:59.448Z,26.80
2022-08-07T19:16:04.302Z,26.93
2022-08-07T19:18:44.891Z,27.39
2022-08-07T19:21:47.593Z,27.20
2022-08-07T19:24:30.537Z,27.11
2022-08-07T19:28:56.630Z,27.01
2022-08-07T19:31:03.256Z,27.35
2022-08-07T19:32:46.304Z,27.68
2022-08-07T19:35:22.574Z,27.79
2022-08-07T19:37:58.025Z,27.73
2022-08-07T19:40:53.653Z,27.70
2022-08-07T19:47:10.831Z,28.49
2022-08-07T19:50:03.195Z,28.32
2022-08-07T19:54:34.783Z,28.40
2022-08-07T19:58:03.261Z,28.67
2022-08-07T20:07:47.586Z,29.01
2022-08-07T20:10:55.780Z,28.98
2022-08-07T20:14:13.768Z,28.89
2022-08-07T20:17:10.968Z,28.82
2022-08-07T20:19:58.652Z,29.20
2022-08-07T20:22:50.837Z,29.26
2022-08-07T20:25:32.295Z,28.80
2022-08-07T20:28:29.532Z,29.07
2022-08-07T20:31:21.417Z,29.03
2022-08-07T20:34:07.577Z,29.74
2022-08-07T20:36:58.171Z,29.53
2022-08-07T20:40:04.316Z,30.07
2022-08-07T20:42:59.219Z,30.31
2022-08-07T20:46:27.495Z,30.11
2022-08-07T20:49:59.336Z,30.86
2022-08-07T20:52:55.491Z,30.95
2022-08-07T20:55:46.512Z,30.65
2022-08-07T21:00:05.439Z,31.11
2022-08-07T21:02:39.163Z,30.30
2022-08-07T21:05:54.346Z,31.13
2022-08-07T21:08:39.340Z,31.10
2022-08-07T21:11:21.946Z,31.20
2022-08-07T21:18:03.661Z,30.75
2022-08-07T21:20:56.137Z,31.10
2022-08-07T21:23:50.620Z,31.42
2022-08-07T21:26:32.233Z,31.94
2022-08-07T21:29:15.769Z,31.43
2022-08-07T21:32:43.796Z,31.76
2022-08-07T21:34:46.251Z,32.36
2022-08-07T21:37:21.813Z,32.05
2022-08-07T21:39:56.608Z,31.66
2022-08-07T21:42:48.178Z,32.56
2022-08-07T21:46:05.314Z,32.77
2022-08-07T21:48:27.964Z,32.16
2022-08-07T21:51:03.181Z,32.27
2022-08-07T21:53:46.442Z,32.16
2022-08-07T21:56:36.025Z,32.92
2022-08-07T21:59:10.840Z,32.82
2022-08-07T22:02:10.248Z,32.11
2022-08-07T22:04:51.405Z,32.18
2022-08-07T22:07:31.503Z,32.11
2022-08-07T22:10:18.270Z,32.87
2022-08-07T22:12:53.749Z,32.73
2022-08-07T22:16:38.348Z,32.44
2022-08-07T22:18:25.221Z,33.28
2022-08-07T22:20:58.214Z,33.09
2022-08-07T22:23:40.198Z,33.02
2022-08-07T22:26:19.138Z,32.97
2022-08-07T22:28:55.247Z,33.02
2022-08-07T22:31:59.107Z,33.18
2022-08-07T22:34:29.084Z,33.36
2022-08-07T22:37:13.984Z,33.86
2022-08-07T22:39:53.663Z,33.16
2022-08-07T22:42:53.814Z,33.33
2022-08-07T22:49:10.945Z,34.09
2022-08-07T22:56:39.293Z,33.61
2022-08-07T23:11:17.529Z,34.67
2022-08-07T23:14:15.233Z,34.14
2022-08-07T23:17:27.956Z,35.52
2022-08-07T23:20:40.794Z,35.28
2022-08-07T23:24:06.085Z,35.05
2022-08-07T23:27:10.876Z,35.51
2022-08-07T23:34:36.091Z,35.31
2022-08-07T23:39:55.386Z,35.45
2022-08-07T23:43:17.056Z,35.80
2022-08-07T23:49:49.987Z,36.06
2022-08-07T23:53:06.404Z,36.00
2022-08-07T23:56:12.591Z,35.45
2022-08-07T23:59:10.419Z,36.23
